sensor_id;sensor_type;location;lat;lon;timestamp;P1;durP1;ratioP1;P2;durP2;ratioP2
46713;SDS011;32445;51.376;10.874;2023-08-30T00:01:42;2.80;;;1.93;;
46713;SDS011;32445;51.376;10.874;2023-08-30T00:06:42;3.80;;;1.73;;
46713;SDS011;32445;51.376;10.874;2023-08-30T00:11:43;2.37;;;1.70;;
46713;SDS011;32445;51.376;10.874;2023-08-30T00:16:43;9.40;;;2.30;;
46713;SDS011;32445;51.376;10.874;2023-08-30T00:21:43;4.23;;;1.97;;
46713;SDS011;32445;51.376;10.874;2023-08-30T00:26:44;4.57;;;1.83;;
46713;SDS011;32445;51.376;10.874;2023-08-30T00:31:44;6.80;;;2.23;;
46713;SDS011;32445;51.376;10.874;2023-08-30T00:36:45;4.67;;;2.13;;
46713;SDS011;32445;51.376;10.874;2023-08-30T00:41:45;7.23;;;2.90;;
46713;SDS011;32445;51.376;10.874;2023-08-30T00:46:46;6.13;;;2.30;;
46713;SDS011;32445;51.376;10.874;2023-08-30T00:51:46;5.72;;;2.33;;
46713;SDS011;32445;51.376;10.874;2023-08-30T00:56:47;4.03;;;2.15;;
46713;SDS011;32445;51.376;10.874;2023-08-30T01:01:48;4.75;;;2.42;;
46713;SDS011;32445;51.376;10.874;2023-08-30T01:06:48;4.85;;;2.40;;
46713;SDS011;32445;51.376;10.874;2023-08-30T01:11:54;4.95;;;2.97;;
46713;SDS011;32445;51.376;10.874;2023-08-30T01:16:58;5.47;;;3.00;;
46713;SDS011;32445;51.376;10.874;2023-08-30T01:22:02;5.55;;;3.25;;
46713;SDS011;32445;51.376;10.874;2023-08-30T01:27:14;4.03;;;2.38;;
46713;SDS011;32445;51.376;10.874;2023-08-30T01:32:16;8.48;;;3.05;;
46713;SDS011;32445;51.376;10.874;2023-08-30T01:37:16;5.05;;;2.95;;
46713;SDS011;32445;51.376;10.874;2023-08-30T01:42:18;5.25;;;3.10;;
46713;SDS011;32445;51.376;10.874;2023-08-30T01:47:22;5.47;;;3.00;;
46713;SDS011;32445;51.376;10.874;2023-08-30T01:52:24;4.15;;;2.30;;
46713;SDS011;32445;51.376;10.874;2023-08-30T01:57:24;6.07;;;2.87;;
46713;SDS011;32445;51.376;10.874;2023-08-30T02:02:28;4.07;;;1.87;;
46713;SDS011;32445;51.376;10.874;2023-08-30T02:07:40;6.05;;;2.53;;
46713;SDS011;32445;51.376;10.874;2023-08-30T02:12:54;7.15;;;3.33;;
46713;SDS011;32445;51.376;10.874;2023-08-30T02:17:59;6.00;;;3.08;;
46713;SDS011;32445;51.376;10.874;2023-08-30T02:23:01;9.40;;;3.72;;
46713;SDS011;32445;51.376;10.874;2023-08-30T02:28:02;6.23;;;3.00;;
46713;SDS011;32445;51.376;10.874;2023-08-30T02:33:02;8.50;;;3.58;;
46713;SDS011;32445;51.376;10.874;2023-08-30T02:38:03;6.07;;;3.30;;
46713;SDS011;32445;51.376;10.874;2023-08-30T02:43:04;6.38;;;3.08;;
46713;SDS011;32445;51.376;10.874;2023-08-30T02:48:05;5.80;;;2.87;;
46713;SDS011;32445;51.376;10.874;2023-08-30T02:53:06;10.65;;;4.90;;
46713;SDS011;32445;51.376;10.874;2023-08-30T02:58:08;9.35;;;3.85;;
46713;SDS011;32445;51.376;10.874;2023-08-30T03:03:08;5.13;;;3.33;;
46713;SDS011;32445;51.376;10.874;2023-08-30T03:08:09;5.68;;;3.40;;
46713;SDS011;32445;51.376;10.874;2023-08-30T03:13:09;6.88;;;3.88;;
46713;SDS011;32445;51.376;10.874;2023-08-30T03:18:10;8.87;;;4.20;;
46713;SDS011;32445;51.376;10.874;2023-08-30T03:23:10;5.87;;;3.00;;
46713;SDS011;32445;51.376;10.874;2023-08-30T03:28:10;4.23;;;2.80;;
46713;SDS011;32445;51.376;10.874;2023-08-30T03:33:11;3.20;;;2.20;;
46713;SDS011;32445;51.376;10.874;2023-08-30T03:38:12;4.60;;;2.58;;
46713;SDS011;32445;51.376;10.874;2023-08-30T03:43:12;7.67;;;4.10;;
46713;SDS011;32445;51.376;10.874;2023-08-30T03:48:12;8.97;;;3.63;;
46713;SDS011;32445;51.376;10.874;2023-08-30T03:53:13;3.50;;;2.87;;
46713;SDS011;32445;51.376;10.874;2023-08-30T03:58:13;4.15;;;2.92;;
46713;SDS011;32445;51.376;10.874;2023-08-30T04:03:15;6.40;;;2.83;;
46713;SDS011;32445;51.376;10.874;2023-08-30T04:08:15;5.57;;;3.00;;
46713;SDS011;32445;51.376;10.874;2023-08-30T04:13:15;7.33;;;3.23;;
46713;SDS011;32445;51.376;10.874;2023-08-30T04:18:16;4.60;;;2.67;;
46713;SDS011;32445;51.376;10.874;2023-08-30T04:23:16;5.22;;;3.17;;
46713;SDS011;32445;51.376;10.874;2023-08-30T04:28:17;4.83;;;3.17;;
46713;SDS011;32445;51.376;10.874;2023-08-30T04:33:17;3.87;;;2.30;;
46713;SDS011;32445;51.376;10.874;2023-08-30T04:38:18;2.22;;;1.85;;
46713;SDS011;32445;51.376;10.874;2023-08-30T04:43:19;2.47;;;1.90;;
46713;SDS011;32445;51.376;10.874;2023-08-30T04:48:20;2.83;;;1.90;;
46713;SDS011;32445;51.376;10.874;2023-08-30T04:53:20;3.33;;;1.90;;
46713;SDS011;32445;51.376;10.874;2023-08-30T04:58:20;3.20;;;2.10;;
46713;SDS011;32445;51.376;10.874;2023-08-30T05:03:21;3.30;;;1.75;;
46713;SDS011;32445;51.376;10.874;2023-08-30T05:08:21;3.60;;;2.00;;
46713;SDS011;32445;51.376;10.874;2023-08-30T05:13:22;1.90;;;1.40;;
46713;SDS011;32445;51.376;10.874;2023-08-30T05:18:22;2.40;;;1.87;;
46713;SDS011;32445;51.376;10.874;2023-08-30T05:23:22;2.60;;;1.87;;
46713;SDS011;32445;51.376;10.874;2023-08-30T05:28:23;3.43;;;1.90;;
46713;SDS011;32445;51.376;10.874;2023-08-30T05:33:23;2.63;;;1.83;;
46713;SDS011;32445;51.376;10.874;2023-08-30T05:38:23;4.27;;;2.03;;
46713;SDS011;32445;51.376;10.874;2023-08-30T05:43:24;4.00;;;2.50;;
46713;SDS011;32445;51.376;10.874;2023-08-30T05:48:24;4.50;;;2.37;;
46713;SDS011;32445;51.376;10.874;2023-08-30T05:53:24;4.77;;;2.07;;
46713;SDS011;32445;51.376;10.874;2023-08-30T05:58:25;4.55;;;2.28;;
46713;SDS011;32445;51.376;10.874;2023-08-30T06:03:25;5.03;;;2.33;;
46713;SDS011;32445;51.376;10.874;2023-08-30T06:08:26;3.50;;;1.97;;
46713;SDS011;32445;51.376;10.874;2023-08-30T06:13:26;3.33;;;2.10;;
46713;SDS011;32445;51.376;10.874;2023-08-30T06:18:29;4.10;;;2.23;;
46713;SDS011;32445;51.376;10.874;2023-08-30T06:23:30;11.43;;;2.40;;
46713;SDS011;32445;51.376;10.874;2023-08-30T06:28:33;4.43;;;2.47;;
46713;SDS011;32445;51.376;10.874;2023-08-30T06:33:33;3.77;;;2.40;;
46713;SDS011;32445;51.376;10.874;2023-08-30T06:38:34;3.93;;;2.93;;
46713;SDS011;32445;51.376;10.874;2023-08-30T06:43:34;4.10;;;2.78;;
46713;SDS011;32445;51.376;10.874;2023-08-30T06:48:35;3.30;;;2.80;;
46713;SDS011;32445;51.376;10.874;2023-08-30T06:53:35;6.83;;;3.07;;
46713;SDS011;32445;51.376;10.874;2023-08-30T06:58:35;4.78;;;3.15;;
46713;SDS011;32445;51.376;10.874;2023-08-30T07:03:36;4.60;;;3.27;;
46713;SDS011;32445;51.376;10.874;2023-08-30T07:08:36;8.23;;;3.20;;
46713;SDS011;32445;51.376;10.874;2023-08-30T07:13:36;6.53;;;3.17;;
46713;SDS011;32445;51.376;10.874;2023-08-30T07:18:37;6.30;;;3.40;;
46713;SDS011;32445;51.376;10.874;2023-08-30T07:23:37;6.88;;;3.53;;
46713;SDS011;32445;51.376;10.874;2023-08-30T07:28:38;4.97;;;3.67;;
46713;SDS011;32445;51.376;10.874;2023-08-30T07:33:39;4.72;;;2.80;;
46713;SDS011;32445;51.376;10.874;2023-08-30T07:38:40;7.87;;;3.60;;
46713;SDS011;32445;51.376;10.874;2023-08-30T07:43:40;7.28;;;3.10;;
46713;SDS011;32445;51.376;10.874;2023-08-30T07:48:40;4.90;;;3.30;;
46713;SDS011;32445;51.376;10.874;2023-08-30T07:53:41;8.17;;;3.23;;
46713;SDS011;32445;51.376;10.874;2023-08-30T07:58:41;5.63;;;2.67;;
46713;SDS011;32445;51.376;10.874;2023-08-30T08:03:42;5.68;;;2.60;;
46713;SDS011;32445;51.376;10.874;2023-08-30T08:08:43;5.97;;;2.77;;
46713;SDS011;32445;51.376;10.874;2023-08-30T08:13:44;4.05;;;3.47;;
46713;SDS011;32445;51.376;10.874;2023-08-30T08:18:44;4.60;;;2.80;;
46713;SDS011;32445;51.376;10.874;2023-08-30T08:23:45;5.80;;;2.60;;
46713;SDS011;32445;51.376;10.874;2023-08-30T08:28:49;5.70;;;3.03;;
46713;SDS011;32445;51.376;10.874;2023-08-30T08:33:50;4.00;;;2.27;;
46713;SDS011;32445;51.376;10.874;2023-08-30T08:38:52;4.00;;;2.78;;
46713;SDS011;32445;51.376;10.874;2023-08-30T08:43:53;6.43;;;2.73;;
46713;SDS011;32445;51.376;10.874;2023-08-30T08:48:53;3.28;;;2.20;;
46713;SDS011;32445;51.376;10.874;2023-08-30T08:53:57;4.43;;;2.50;;
46713;SDS011;32445;51.376;10.874;2023-08-30T08:59:02;3.45;;;2.42;;
46713;SDS011;32445;51.376;10.874;2023-08-30T09:04:09;4.47;;;2.35;;
46713;SDS011;32445;51.376;10.874;2023-08-30T09:09:10;5.80;;;2.70;;
46713;SDS011;32445;51.376;10.874;2023-08-30T09:14:12;5.53;;;3.28;;
46713;SDS011;32445;51.376;10.874;2023-08-30T09:19:12;7.83;;;3.03;;
46713;SDS011;32445;51.376;10.874;2023-08-30T09:24:12;4.47;;;2.60;;
46713;SDS011;32445;51.376;10.874;2023-08-30T09:29:13;4.77;;;2.70;;
46713;SDS011;32445;51.376;10.874;2023-08-30T09:34:13;3.63;;;2.60;;
46713;SDS011;32445;51.376;10.874;2023-08-30T09:39:14;3.13;;;2.10;;
46713;SDS011;32445;51.376;10.874;2023-08-30T09:44:16;3.10;;;2.10;;
46713;SDS011;32445;51.376;10.874;2023-08-30T09:49:18;4.22;;;2.28;;
46713;SDS011;32445;51.376;10.874;2023-08-30T09:54:22;3.20;;;2.15;;
46713;SDS011;32445;51.376;10.874;2023-08-30T09:59:25;5.20;;;2.75;;
46713;SDS011;32445;51.376;10.874;2023-08-30T10:04:26;3.25;;;2.38;;
46713;SDS011;32445;51.376;10.874;2023-08-30T10:09:28;5.57;;;2.50;;
46713;SDS011;32445;51.376;10.874;2023-08-30T10:14:30;4.82;;;3.33;;
46713;SDS011;32445;51.376;10.874;2023-08-30T10:19:31;4.47;;;3.10;;
46713;SDS011;32445;51.376;10.874;2023-08-30T10:24:32;4.32;;;3.13;;
46713;SDS011;32445;51.376;10.874;2023-08-30T10:29:39;3.85;;;3.10;;
46713;SDS011;32445;51.376;10.874;2023-08-30T10:34:47;4.82;;;2.90;;
46713;SDS011;32445;51.376;10.874;2023-08-30T10:39:49;5.28;;;3.15;;
46713;SDS011;32445;51.376;10.874;2023-08-30T10:44:56;4.50;;;3.23;;
46713;SDS011;32445;51.376;10.874;2023-08-30T10:49:58;5.70;;;3.60;;
46713;SDS011;32445;51.376;10.874;2023-08-30T10:55:14;3.92;;;3.17;;
46713;SDS011;32445;51.376;10.874;2023-08-30T11:00:19;6.03;;;3.70;;
46713;SDS011;32445;51.376;10.874;2023-08-30T11:05:24;6.55;;;3.10;;
46713;SDS011;32445;51.376;10.874;2023-08-30T11:10:26;3.80;;;2.70;;
46713;SDS011;32445;51.376;10.874;2023-08-30T11:15:26;5.00;;;4.00;;
46713;SDS011;32445;51.376;10.874;2023-08-30T11:20:27;4.83;;;3.93;;
46713;SDS011;32445;51.376;10.874;2023-08-30T11:25:27;6.17;;;4.33;;
46713;SDS011;32445;51.376;10.874;2023-08-30T11:30:28;7.50;;;4.90;;
46713;SDS011;32445;51.376;10.874;2023-08-30T11:35:28;5.90;;;3.93;;
46713;SDS011;32445;51.376;10.874;2023-08-30T11:40:32;6.00;;;5.05;;
46713;SDS011;32445;51.376;10.874;2023-08-30T11:45:33;5.82;;;3.92;;
46713;SDS011;32445;51.376;10.874;2023-08-30T11:50:34;8.13;;;3.67;;
46713;SDS011;32445;51.376;10.874;2023-08-30T11:55:35;5.05;;;3.55;;
46713;SDS011;32445;51.376;10.874;2023-08-30T12:00:35;5.65;;;3.92;;
46713;SDS011;32445;51.376;10.874;2023-08-30T12:05:43;5.47;;;4.50;;
46713;SDS011;32445;51.376;10.874;2023-08-30T12:10:45;6.28;;;4.32;;
46713;SDS011;32445;51.376;10.874;2023-08-30T12:15:46;7.40;;;3.88;;
46713;SDS011;32445;51.376;10.874;2023-08-30T12:26:09;5.25;;;3.45;;
46713;SDS011;32445;51.376;10.874;2023-08-30T12:31:13;7.60;;;4.68;;
46713;SDS011;32445;51.376;10.874;2023-08-30T12:36:13;5.10;;;4.05;;
46713;SDS011;32445;51.376;10.874;2023-08-30T12:41:14;6.87;;;3.77;;
46713;SDS011;32445;51.376;10.874;2023-08-30T12:46:15;7.80;;;3.10;;
46713;SDS011;32445;51.376;10.874;2023-08-30T12:51:15;5.90;;;3.40;;
46713;SDS011;32445;51.376;10.874;2023-08-30T12:56:15;5.27;;;3.70;;
46713;SDS011;32445;51.376;10.874;2023-08-30T13:01:16;5.87;;;3.87;;
46713;SDS011;32445;51.376;10.874;2023-08-30T13:06:16;4.30;;;3.43;;
46713;SDS011;32445;51.376;10.874;2023-08-30T13:11:17;4.23;;;3.00;;
46713;SDS011;32445;51.376;10.874;2023-08-30T13:16:17;4.30;;;3.13;;
46713;SDS011;32445;51.376;10.874;2023-08-30T13:21:17;4.07;;;2.90;;
46713;SDS011;32445;51.376;10.874;2023-08-30T13:26:18;4.57;;;3.87;;
46713;SDS011;32445;51.376;10.874;2023-08-30T13:31:18;3.97;;;2.70;;
46713;SDS011;32445;51.376;10.874;2023-08-30T13:36:18;4.77;;;3.10;;
46713;SDS011;32445;51.376;10.874;2023-08-30T13:41:19;4.43;;;3.10;;
46713;SDS011;32445;51.376;10.874;2023-08-30T13:46:19;4.60;;;3.00;;
46713;SDS011;32445;51.376;10.874;2023-08-30T13:51:23;3.97;;;2.97;;
46713;SDS011;32445;51.376;10.874;2023-08-30T13:56:24;4.25;;;2.83;;
46713;SDS011;32445;51.376;10.874;2023-08-30T14:01:24;4.65;;;3.13;;
46713;SDS011;32445;51.376;10.874;2023-08-30T14:06:25;4.13;;;2.88;;
46713;SDS011;32445;51.376;10.874;2023-08-30T14:11:25;4.43;;;3.17;;
46713;SDS011;32445;51.376;10.874;2023-08-30T14:16:26;5.97;;;2.80;;
46713;SDS011;32445;51.376;10.874;2023-08-30T14:21:26;5.30;;;3.10;;
46713;SDS011;32445;51.376;10.874;2023-08-30T14:31:29;4.90;;;2.80;;
46713;SDS011;32445;51.376;10.874;2023-08-30T14:36:30;3.95;;;2.70;;
46713;SDS011;32445;51.376;10.874;2023-08-30T14:41:31;3.50;;;2.87;;
46713;SDS011;32445;51.376;10.874;2023-08-30T14:46:32;7.35;;;3.05;;
46713;SDS011;32445;51.376;10.874;2023-08-30T14:51:32;4.57;;;3.33;;
46713;SDS011;32445;51.376;10.874;2023-08-30T14:56:32;3.50;;;2.83;;
46713;SDS011;32445;51.376;10.874;2023-08-30T15:01:33;6.53;;;3.17;;
46713;SDS011;32445;51.376;10.874;2023-08-30T15:06:33;3.93;;;2.97;;
46713;SDS011;32445;51.376;10.874;2023-08-30T15:11:34;6.63;;;3.20;;
46713;SDS011;32445;51.376;10.874;2023-08-30T15:16:37;5.57;;;2.90;;
46713;SDS011;32445;51.376;10.874;2023-08-30T15:21:37;3.75;;;3.25;;
46713;SDS011;32445;51.376;10.874;2023-08-30T15:26:38;4.03;;;3.03;;
46713;SDS011;32445;51.376;10.874;2023-08-30T15:31:39;3.03;;;2.60;;
46713;SDS011;32445;51.376;10.874;2023-08-30T15:36:39;5.20;;;3.20;;
46713;SDS011;32445;51.376;10.874;2023-08-30T15:41:40;3.37;;;2.90;;
46713;SDS011;32445;51.376;10.874;2023-08-30T15:46:41;3.80;;;2.58;;
46713;SDS011;32445;51.376;10.874;2023-08-30T15:51:41;4.00;;;2.20;;
46713;SDS011;32445;51.376;10.874;2023-08-30T15:56:41;3.70;;;2.50;;
46713;SDS011;32445;51.376;10.874;2023-08-30T16:01:43;5.50;;;2.70;;
46713;SDS011;32445;51.376;10.874;2023-08-30T16:06:43;3.63;;;2.70;;
46713;SDS011;32445;51.376;10.874;2023-08-30T16:11:44;2.90;;;2.42;;
46713;SDS011;32445;51.376;10.874;2023-08-30T16:16:45;3.53;;;2.50;;
46713;SDS011;32445;51.376;10.874;2023-08-30T16:21:45;3.80;;;2.40;;
46713;SDS011;32445;51.376;10.874;2023-08-30T16:26:45;4.67;;;2.63;;
46713;SDS011;32445;51.376;10.874;2023-08-30T16:31:46;3.00;;;2.67;;
46713;SDS011;32445;51.376;10.874;2023-08-30T16:36:50;3.72;;;2.50;;
46713;SDS011;32445;51.376;10.874;2023-08-30T16:41:50;2.90;;;2.20;;
46713;SDS011;32445;51.376;10.874;2023-08-30T16:46:51;4.03;;;2.23;;
46713;SDS011;32445;51.376;10.874;2023-08-30T16:51:51;3.27;;;2.43;;
46713;SDS011;32445;51.376;10.874;2023-08-30T16:56:54;4.45;;;2.60;;
46713;SDS011;32445;51.376;10.874;2023-08-30T17:01:54;3.83;;;2.40;;
46713;SDS011;32445;51.376;10.874;2023-08-30T17:06:57;4.18;;;2.88;;
46713;SDS011;32445;51.376;10.874;2023-08-30T17:11:59;6.30;;;2.78;;
46713;SDS011;32445;51.376;10.874;2023-08-30T17:17:00;5.32;;;3.28;;
46713;SDS011;32445;51.376;10.874;2023-08-30T17:22:01;4.35;;;2.78;;
46713;SDS011;32445;51.376;10.874;2023-08-30T17:27:03;5.50;;;2.97;;
46713;SDS011;32445;51.376;10.874;2023-08-30T17:32:04;4.18;;;3.17;;
46713;SDS011;32445;51.376;10.874;2023-08-30T17:37:04;4.17;;;3.00;;
46713;SDS011;32445;51.376;10.874;2023-08-30T17:42:07;5.60;;;3.13;;
46713;SDS011;32445;51.376;10.874;2023-08-30T17:47:08;4.78;;;2.95;;
46713;SDS011;32445;51.376;10.874;2023-08-30T17:52:08;5.83;;;2.70;;
46713;SDS011;32445;51.376;10.874;2023-08-30T17:57:08;7.10;;;2.80;;
46713;SDS011;32445;51.376;10.874;2023-08-30T18:02:10;4.57;;;3.03;;
46713;SDS011;32445;51.376;10.874;2023-08-30T18:07:11;4.50;;;2.55;;
46713;SDS011;32445;51.376;10.874;2023-08-30T18:12:12;4.90;;;3.13;;
46713;SDS011;32445;51.376;10.874;2023-08-30T18:17:12;7.47;;;2.70;;
46713;SDS011;32445;51.376;10.874;2023-08-30T18:22:12;3.00;;;2.60;;
46713;SDS011;32445;51.376;10.874;2023-08-30T18:27:13;4.78;;;3.40;;
46713;SDS011;32445;51.376;10.874;2023-08-30T18:32:14;3.78;;;3.08;;
46713;SDS011;32445;51.376;10.874;2023-08-30T18:37:17;5.70;;;3.65;;
46713;SDS011;32445;51.376;10.874;2023-08-30T18:42:18;8.38;;;3.53;;
46713;SDS011;32445;51.376;10.874;2023-08-30T18:47:18;3.43;;;2.90;;
46713;SDS011;32445;51.376;10.874;2023-08-30T18:52:21;5.53;;;2.83;;
46713;SDS011;32445;51.376;10.874;2023-08-30T18:57:21;4.33;;;2.77;;
46713;SDS011;32445;51.376;10.874;2023-08-30T19:02:22;8.23;;;4.27;;
46713;SDS011;32445;51.376;10.874;2023-08-30T19:07:22;4.45;;;3.20;;
46713;SDS011;32445;51.376;10.874;2023-08-30T19:12:23;6.77;;;3.40;;
46713;SDS011;32445;51.376;10.874;2023-08-30T19:17:23;5.97;;;3.60;;
46713;SDS011;32445;51.376;10.874;2023-08-30T19:22:23;5.77;;;3.07;;
46713;SDS011;32445;51.376;10.874;2023-08-30T19:27:25;4.53;;;3.05;;
46713;SDS011;32445;51.376;10.874;2023-08-30T19:32:28;3.00;;;2.20;;
46713;SDS011;32445;51.376;10.874;2023-08-30T19:37:29;4.13;;;2.30;;
46713;SDS011;32445;51.376;10.874;2023-08-30T19:42:31;2.80;;;1.92;;
46713;SDS011;32445;51.376;10.874;2023-08-30T19:47:32;3.17;;;2.10;;
46713;SDS011;32445;51.376;10.874;2023-08-30T19:52:32;3.45;;;1.95;;
46713;SDS011;32445;51.376;10.874;2023-08-30T19:57:33;2.27;;;1.50;;
46713;SDS011;32445;51.376;10.874;2023-08-30T20:02:36;3.30;;;1.60;;
46713;SDS011;32445;51.376;10.874;2023-08-30T20:07:37;2.30;;;1.00;;
46713;SDS011;32445;51.376;10.874;2023-08-30T20:12:38;2.13;;;1.10;;
46713;SDS011;32445;51.376;10.874;2023-08-30T20:17:41;1.83;;;1.10;;
46713;SDS011;32445;51.376;10.874;2023-08-30T20:22:41;2.38;;;0.90;;
46713;SDS011;32445;51.376;10.874;2023-08-30T20:27:41;1.00;;;0.80;;
46713;SDS011;32445;51.376;10.874;2023-08-30T20:32:42;2.10;;;1.10;;
46713;SDS011;32445;51.376;10.874;2023-08-30T20:37:42;2.30;;;1.20;;
46713;SDS011;32445;51.376;10.874;2023-08-30T20:42:42;1.10;;;0.70;;
46713;SDS011;32445;51.376;10.874;2023-08-30T20:47:43;2.00;;;1.13;;
46713;SDS011;32445;51.376;10.874;2023-08-30T20:52:44;1.95;;;0.90;;
46713;SDS011;32445;51.376;10.874;2023-08-30T20:57:45;1.60;;;1.05;;
46713;SDS011;32445;51.376;10.874;2023-08-30T21:02:45;1.63;;;1.00;;
46713;SDS011;32445;51.376;10.874;2023-08-30T21:07:46;2.00;;;0.93;;
46713;SDS011;32445;51.376;10.874;2023-08-30T21:12:46;2.67;;;1.00;;
46713;SDS011;32445;51.376;10.874;2023-08-30T21:17:46;2.10;;;1.20;;
46713;SDS011;32445;51.376;10.874;2023-08-30T21:22:47;1.07;;;0.77;;
46713;SDS011;32445;51.376;10.874;2023-08-30T21:27:47;2.10;;;0.88;;
46713;SDS011;32445;51.376;10.874;2023-08-30T21:32:47;1.20;;;0.80;;
46713;SDS011;32445;51.376;10.874;2023-08-30T21:37:49;1.05;;;0.70;;
46713;SDS011;32445;51.376;10.874;2023-08-30T21:42:49;1.20;;;0.70;;
46713;SDS011;32445;51.376;10.874;2023-08-30T21:47:50;0.87;;;0.60;;
46713;SDS011;32445;51.376;10.874;2023-08-30T21:52:50;1.77;;;0.87;;
46713;SDS011;32445;51.376;10.874;2023-08-30T21:57:50;3.93;;;1.00;;
46713;SDS011;32445;51.376;10.874;2023-08-30T22:02:51;1.57;;;1.00;;
46713;SDS011;32445;51.376;10.874;2023-08-30T22:07:51;1.63;;;0.90;;
46713;SDS011;32445;51.376;10.874;2023-08-30T22:12:52;1.17;;;0.90;;
46713;SDS011;32445;51.376;10.874;2023-08-30T22:17:53;2.78;;;0.90;;
46713;SDS011;32445;51.376;10.874;2023-08-30T22:22:53;1.60;;;0.90;;
46713;SDS011;32445;51.376;10.874;2023-08-30T22:27:54;1.93;;;0.83;;
46713;SDS011;32445;51.376;10.874;2023-08-30T22:32:54;1.33;;;0.90;;
46713;SDS011;32445;51.376;10.874;2023-08-30T22:37:56;2.30;;;0.80;;
46713;SDS011;32445;51.376;10.874;2023-08-30T22:42:57;2.45;;;0.80;;
46713;SDS011;32445;51.376;10.874;2023-08-30T22:47:57;1.47;;;0.90;;
46713;SDS011;32445;51.376;10.874;2023-08-30T22:52:58;1.93;;;0.97;;
46713;SDS011;32445;51.376;10.874;2023-08-30T22:57:58;1.63;;;1.00;;
46713;SDS011;32445;51.376;10.874;2023-08-30T23:02:58;2.80;;;1.00;;
46713;SDS011;32445;51.376;10.874;2023-08-30T23:07:59;1.60;;;1.00;;
46713;SDS011;32445;51.376;10.874;2023-08-30T23:12:59;1.83;;;1.00;;
46713;SDS011;32445;51.376;10.874;2023-08-30T23:18:02;4.33;;;1.00;;
46713;SDS011;32445;51.376;10.874;2023-08-30T23:23:03;2.67;;;1.20;;
46713;SDS011;32445;51.376;10.874;2023-08-30T23:28:04;2.30;;;1.00;;
46713;SDS011;32445;51.376;10.874;2023-08-30T23:33:06;3.38;;;1.08;;
46713;SDS011;32445;51.376;10.874;2023-08-30T23:38:06;1.63;;;1.00;;
46713;SDS011;32445;51.376;10.874;2023-08-30T23:43:07;1.60;;;1.00;;
46713;SDS011;32445;51.376;10.874;2023-08-30T23:48:08;2.53;;;1.10;;
46713;SDS011;32445;51.376;10.874;2023-08-30T23:53:08;1.50;;;0.90;;
46713;SDS011;32445;51.376;10.874;2023-08-30T23:58:09;3.77;;;1.00;;
